createdAt,value
2023-01-23T00:01:26.979Z,100483.91
2023-01-23T00:03:55.652Z,100482.09
2023-01-23T00:06:23.088Z,100477.56
2023-01-23T00:08:49.773Z,100479.38
2023-01-23T00:11:25.892Z,100472.97
2023-01-23T00:13:56.090Z,100480.19
2023-01-23T00:16:25.129Z,100474.88
2023-01-23T00:18:52.456Z,100480.00
2023-01-23T00:21:21.823Z,100476.19
2023-01-23T00:23:50.616Z,100472.88
2023-01-23T00:26:19.883Z,100464.47
2023-01-23T00:28:52.054Z,100468.06
2023-01-23T00:31:25.217Z,100464.56
2023-01-23T00:33:57.674Z,100469.75
2023-01-23T00:36:24.909Z,100467.97
2023-01-23T00:38:51.408Z,100475.69
2023-01-23T00:41:17.921Z,100482.88
2023-01-23T00:43:45.077Z,100483.69
2023-01-23T00:46:11.638Z,100482.78
2023-01-23T00:48:40.472Z,100488.00
2023-01-23T00:51:06.981Z,100487.63
2023-01-23T00:53:33.527Z,100491.41
2023-01-23T00:56:02.875Z,100495.91
2023-01-23T00:58:29.450Z,100496.69
2023-01-23T01:00:55.918Z,100505.41
2023-01-23T01:03:25.161Z,100495.81
2023-01-23T01:05:55.046Z,100507.22
2023-01-23T01:08:21.639Z,100496.59
2023-01-23T01:10:48.077Z,100501.81
2023-01-23T01:13:16.868Z,100506.03
2023-01-23T01:15:43.430Z,100509.34
2023-01-23T01:18:10.006Z,100514.66
2023-01-23T01:20:36.658Z,100517.63
2023-01-23T01:23:03.181Z,100516.72
2023-01-23T01:25:30.404Z,100515.84
2023-01-23T01:27:56.884Z,100517.53
2023-01-23T01:30:44.073Z,100522.84
2023-01-23T01:33:11.174Z,100518.34
2023-01-23T01:35:41.084Z,100519.25
2023-01-23T01:38:08.843Z,100521.84
2023-01-23T01:40:37.586Z,100518.44
2023-01-23T01:43:08.014Z,100520.13
2023-01-23T01:46:14.422Z,100526.06
2023-01-23T01:49:02.142Z,100525.06
2023-01-23T01:52:00.672Z,100528.56
2023-01-23T01:54:36.426Z,100525.88
2023-01-23T01:57:08.882Z,100525.97
2023-01-23T01:59:40.823Z,100526.78
2023-01-23T02:02:11.176Z,100526.06
2023-01-23T02:04:45.028Z,100522.47
2023-01-23T02:07:24.898Z,100533.88
2023-01-23T02:09:52.699Z,100534.78
2023-01-23T02:12:22.010Z,100537.28
2023-01-23T02:14:48.646Z,100538.28
2023-01-23T02:17:15.181Z,100539.19
2023-01-23T02:20:09.630Z,100544.63
2023-01-23T02:22:55.968Z,100548.69
2023-01-23T02:25:38.062Z,100550.41
2023-01-23T02:28:07.265Z,100548.59
2023-01-23T02:30:39.964Z,100556.41
2023-01-23T02:33:10.478Z,100558.91
2023-01-23T02:35:37.362Z,100553.91
2023-01-23T02:38:06.624Z,100554.09
2023-01-23T02:40:38.488Z,100554.09
2023-01-23T02:43:06.202Z,100556.69
2023-01-23T02:45:37.237Z,100562.72
2023-01-23T02:48:06.093Z,100560.09
2023-01-23T02:50:35.353Z,100564.50
2023-01-23T02:53:01.870Z,100565.31
2023-01-23T02:55:34.836Z,100569.53
2023-01-23T02:58:20.048Z,100579.84
2023-01-23T03:00:47.537Z,100582.66
2023-01-23T03:03:15.970Z,100582.16
2023-01-23T03:05:42.821Z,100583.34
2023-01-23T03:08:09.354Z,100585.16
2023-01-23T03:10:36.065Z,100580.84
2023-01-23T03:13:04.556Z,100582.47
2023-01-23T03:15:31.619Z,100584.25
2023-01-23T03:17:58.147Z,100580.94
2023-01-23T03:20:26.863Z,100587.06
2023-01-23T03:22:54.390Z,100581.75
2023-01-23T03:25:20.987Z,100595.56
2023-01-23T03:27:48.396Z,100600.78
2023-01-23T03:30:16.902Z,100596.28
2023-01-23T03:32:44.644Z,100599.88
2023-01-23T03:35:16.589Z,100598.97
2023-01-23T03:37:44.354Z,100606.91
2023-01-23T03:40:41.202Z,100601.59
2023-01-23T03:43:08.190Z,100606.00
2023-01-23T03:45:34.961Z,100607.78
2023-01-23T03:48:01.680Z,100604.38
2023-01-23T03:50:28.148Z,100606.19
2023-01-23T03:52:54.741Z,100609.59
2023-01-23T03:55:21.364Z,100606.19
2023-01-23T03:57:48.231Z,100609.41
2023-01-23T04:00:18.388Z,100618.31
2023-01-23T04:02:45.222Z,100614.81
2023-01-23T04:05:11.728Z,100621.81
2023-01-23T04:07:38.224Z,100616.59
2023-01-23T04:10:05.071Z,100614.81
2023-01-23T04:12:31.567Z,100614.94
2023-01-23T04:14:58.046Z,100619.13
2023-01-23T04:17:24.481Z,100615.72
2023-01-23T04:19:51.002Z,100621.81
2023-01-23T04:22:17.524Z,100622.63
2023-01-23T04:24:44.007Z,100613.81
2023-01-23T04:27:10.519Z,100619.81
2023-01-23T04:29:37.085Z,100618.22
2023-01-23T04:32:04.666Z,100620.72
2023-01-23T04:34:31.283Z,100613.00
2023-01-23T04:36:57.801Z,100613.81
2023-01-23T04:39:24.285Z,100605.09
2023-01-23T04:41:50.796Z,100615.72
2023-01-23T04:44:20.293Z,100612.91
2023-01-23T04:46:55.474Z,100620.00
2023-01-23T04:49:23.407Z,100619.81
2023-01-23T04:51:51.048Z,100615.41
2023-01-23T04:54:18.794Z,100620.81
2023-01-23T04:56:45.677Z,100620.91
2023-01-23T04:59:12.879Z,100616.31
2023-01-23T05:01:39.855Z,100613.00
2023-01-23T05:04:06.344Z,100613.00
2023-01-23T05:06:32.907Z,100614.81
2023-01-23T05:08:59.364Z,100617.31
2023-01-23T05:11:25.933Z,100616.41
2023-01-23T05:13:52.471Z,100614.72
2023-01-23T05:16:19.005Z,100616.41
2023-01-23T05:18:45.436Z,100614.59
2023-01-23T05:21:12.021Z,100620.81
2023-01-23T05:23:38.587Z,100621.63
2023-01-23T05:26:05.158Z,100621.63
2023-01-23T05:28:31.734Z,100621.44
2023-01-23T05:30:58.374Z,100617.13
2023-01-23T05:33:24.955Z,100612.81
2023-01-23T05:35:51.391Z,100611.00
2023-01-23T05:38:18.010Z,100615.41
2023-01-23T05:40:44.467Z,100618.03
2023-01-23T05:43:15.165Z,100617.91
2023-01-23T05:45:41.677Z,100612.91
2023-01-23T05:48:08.416Z,100622.31
2023-01-23T05:50:34.860Z,100622.31
2023-01-23T05:53:01.375Z,100625.03
2023-01-23T05:55:27.808Z,100631.03
2023-01-23T05:57:54.312Z,100633.84
2023-01-23T06:00:21.849Z,100629.53
2023-01-23T06:02:48.673Z,100626.84
2023-01-23T06:05:15.438Z,100631.13
2023-01-23T06:07:41.895Z,100632.03
2023-01-23T06:10:09.941Z,100636.25
2023-01-23T06:12:36.705Z,100631.25
2023-01-23T06:15:03.500Z,100635.25
2023-01-23T06:17:30.018Z,100638.84
2023-01-23T06:19:56.561Z,100646.75
2023-01-23T06:22:23.013Z,100645.88
2023-01-23T06:24:49.643Z,100657.09
2023-01-23T06:27:16.198Z,100665.69
2023-01-23T06:29:42.650Z,100664.91
2023-01-23T06:32:10.169Z,100668.50
2023-01-23T06:34:36.714Z,100668.69
2023-01-23T06:37:03.592Z,100673.91
2023-01-23T06:39:30.248Z,100677.31
2023-01-23T06:41:57.410Z,100683.22
2023-01-23T06:44:24.180Z,100685.94
2023-01-23T06:46:53.308Z,100686.75
2023-01-23T06:49:19.779Z,100690.25
2023-01-23T06:51:46.275Z,100699.75
2023-01-23T06:54:12.789Z,100694.34
2023-01-23T06:56:39.329Z,100701.56
2023-01-23T06:59:06.320Z,100712.88
2023-01-23T07:01:35.504Z,100717.28
2023-01-23T07:04:02.070Z,100720.78
2023-01-23T07:06:30.285Z,100715.47
2023-01-23T07:08:56.885Z,100726.25
2023-01-23T07:11:24.393Z,100720.03
2023-01-23T07:13:50.901Z,100731.22
2023-01-23T07:16:17.410Z,100727.03
2023-01-23T07:18:43.936Z,100725.91
2023-01-23T07:21:10.719Z,100725.25
2023-01-23T07:23:37.290Z,100729.66
2023-01-23T07:26:09.748Z,100729.66
2023-01-23T07:28:39.611Z,100734.84
2023-01-23T07:31:06.568Z,100729.84
2023-01-23T07:33:33.325Z,100734.25
2023-01-23T07:35:59.875Z,100733.25
2023-01-23T07:38:26.391Z,100728.03
2023-01-23T07:40:52.989Z,100735.06
2023-01-23T07:43:19.573Z,100733.44
2023-01-23T07:45:46.059Z,100743.56
2023-01-23T07:48:12.502Z,100741.16
2023-01-23T07:50:39.085Z,100747.38
2023-01-23T07:53:06.472Z,100747.47
2023-01-23T07:55:33.145Z,100743.88
2023-01-23T07:58:03.276Z,100743.88
2023-01-23T08:00:30.383Z,100743.28
2023-01-23T08:02:57.272Z,100744.06
2023-01-23T08:05:24.283Z,100752.69
2023-01-23T08:07:53.760Z,100751.88
2023-01-23T08:10:24.446Z,100747.72
2023-01-23T08:12:50.877Z,100759.69
2023-01-23T08:15:17.693Z,100764.91
2023-01-23T08:17:44.188Z,100763.34
2023-01-23T08:20:11.104Z,100760.75
2023-01-23T08:22:40.732Z,100764.44
2023-01-23T08:25:09.697Z,100770.66
2023-01-23T08:27:36.929Z,100776.78
2023-01-23T08:30:05.590Z,100775.16
2023-01-23T08:32:32.359Z,100778.91
2023-01-23T08:34:59.665Z,100785.03
2023-01-23T08:37:26.157Z,100783.63
2023-01-23T08:39:52.709Z,100793.59
2023-01-23T08:42:19.246Z,100791.81
2023-01-23T08:44:45.692Z,100792.94
2023-01-23T08:47:12.218Z,100802.47
2023-01-23T08:49:41.558Z,100802.66
2023-01-23T08:52:08.101Z,100804.28
2023-01-23T08:54:34.696Z,100803.66
2023-01-23T08:57:01.596Z,100797.66
2023-01-23T08:59:28.666Z,100801.06
2023-01-23T09:01:55.176Z,100803.19
2023-01-23T09:04:21.703Z,100803.66
2023-01-23T09:06:48.157Z,100806.28
2023-01-23T09:09:14.667Z,100807.19
2023-01-23T09:11:41.575Z,100807.97
2023-01-23T09:14:08.048Z,100811.19
2023-01-23T09:16:34.579Z,100814.88
2023-01-23T09:19:01.072Z,100819.31
2023-01-23T09:21:27.621Z,100816.91
2023-01-23T09:23:54.160Z,100819.75
2023-01-23T09:26:20.654Z,100819.59
2023-01-23T09:28:47.305Z,100824.81
2023-01-23T09:31:14.286Z,100829.56
2023-01-23T09:33:41.520Z,100836.16
2023-01-23T09:36:08.802Z,100837.75
2023-01-23T09:38:35.451Z,100838.19
2023-01-23T09:41:09.750Z,100847.00
2023-01-23T09:43:51.899Z,100847.31
2023-01-23T09:46:49.116Z,100849.25
2023-01-23T09:49:38.710Z,100856.94
2023-01-23T09:52:27.392Z,100851.06
2023-01-23T09:55:01.333Z,100853.16
2023-01-23T09:57:42.692Z,100853.66
2023-01-23T10:00:30.045Z,100859.78
2023-01-23T10:02:57.488Z,100855.88
2023-01-23T10:06:02.331Z,100853.88
2023-01-23T10:08:44.311Z,100853.06
2023-01-23T10:11:16.718Z,100851.34
2023-01-23T10:13:54.576Z,100849.03
2023-01-23T10:16:59.636Z,100845.66
2023-01-23T10:19:44.592Z,100840.66
2023-01-23T10:22:26.118Z,100829.91
2023-01-23T10:24:55.899Z,100837.84
2023-01-23T10:27:34.583Z,100844.88
2023-01-23T10:30:30.432Z,100841.03
2023-01-23T10:33:09.086Z,100836.94
2023-01-23T10:35:53.549Z,100834.34
2023-01-23T10:38:40.793Z,100835.25
2023-01-23T10:41:23.448Z,100831.22
2023-01-23T10:43:53.743Z,100830.53
2023-01-23T10:46:38.078Z,100835.34
2023-01-23T10:49:04.713Z,100833.13
2023-01-23T10:51:37.234Z,100839.84
2023-01-23T10:54:07.141Z,100843.47
2023-01-23T10:56:37.437Z,100844.38
2023-01-23T10:59:05.792Z,100845.47
2023-01-23T11:01:37.423Z,100846.88
2023-01-23T11:04:19.719Z,100842.38
2023-01-23T11:07:05.341Z,100833.63
2023-01-23T11:09:32.081Z,100835.75
2023-01-23T11:12:05.714Z,100841.06
2023-01-23T11:14:33.232Z,100838.44
2023-01-23T11:17:13.933Z,100841.84
2023-01-23T11:19:42.372Z,100833.31
2023-01-23T11:22:29.181Z,100841.75
2023-01-23T11:24:56.063Z,100838.44
2023-01-23T11:27:27.959Z,100837.97
2023-01-23T11:30:13.076Z,100835.03
2023-01-23T11:32:50.050Z,100839.34
2023-01-23T11:35:23.924Z,100844.56
2023-01-23T11:37:51.220Z,100843.88
2023-01-23T11:40:22.423Z,100844.69
2023-01-23T11:42:49.249Z,100840.25
2023-01-23T11:45:34.524Z,100840.06
2023-01-23T11:48:21.877Z,100828.00
2023-01-23T11:50:59.723Z,100827.22
2023-01-23T11:53:43.267Z,100826.44
2023-01-23T11:56:26.805Z,100828.25
2023-01-23T11:59:14.275Z,100829.81
2023-01-23T12:02:03.866Z,100834.13
2023-01-23T12:04:52.119Z,100826.75
2023-01-23T12:07:21.338Z,100834.66
2023-01-23T12:10:08.002Z,100828.63
2023-01-23T12:13:11.795Z,100824.31
2023-01-23T12:15:46.783Z,100830.34
2023-01-23T12:18:57.647Z,100817.81
2023-01-23T12:21:45.419Z,100835.03
2023-01-23T12:24:28.262Z,100822.13
2023-01-23T12:27:15.915Z,100832.84
2023-01-23T12:30:02.651Z,100824.00
2023-01-23T12:32:48.618Z,100831.03
2023-01-23T12:35:15.038Z,100820.50
2023-01-23T12:37:58.943Z,100825.00
2023-01-23T12:40:30.867Z,100818.00
2023-01-23T12:42:57.186Z,100801.53
2023-01-23T12:45:27.032Z,100805.16
2023-01-23T12:48:15.727Z,100807.84
2023-01-23T12:51:05.634Z,100802.91
2023-01-23T12:53:37.379Z,100802.91
2023-01-23T12:56:35.212Z,100809.16
2023-01-23T12:59:39.171Z,100801.63
2023-01-23T13:02:29.194Z,100814.38
2023-01-23T13:05:10.913Z,100804.72
2023-01-23T13:08:10.073Z,100807.22
2023-01-23T13:11:28.398Z,100811.25
2023-01-23T13:13:55.085Z,100812.44
2023-01-23T13:16:27.758Z,100817.75
2023-01-23T13:19:12.959Z,100821.97
2023-01-23T13:21:58.513Z,100828.69
2023-01-23T13:24:51.373Z,100825.00
2023-01-23T13:27:58.708Z,100829.41
2023-01-23T13:30:35.984Z,100828.78
2023-01-23T13:33:11.648Z,100819.97
2023-01-23T13:35:44.782Z,100823.78
2023-01-23T13:38:25.543Z,100818.38
2023-01-23T13:41:14.505Z,100826.09
2023-01-23T13:43:50.124Z,100824.47
2023-01-23T14:21:52.454Z,100855.03
2023-01-23T14:24:29.314Z,100859.44
2023-01-23T14:27:09.563Z,100859.25
2023-01-23T14:29:36.898Z,100866.47
2023-01-23T14:32:03.614Z,100864.66
2023-01-23T14:34:30.083Z,100862.75
2023-01-23T14:37:15.779Z,100865.34
2023-01-23T14:39:53.173Z,100867.97
2023-01-23T14:42:31.104Z,100868.66
2023-01-23T14:45:01.919Z,100874.88
2023-01-23T14:47:42.222Z,100867.84
2023-01-23T14:50:11.422Z,100865.16
2023-01-23T14:52:37.999Z,100875.38
2023-01-23T14:55:29.590Z,100880.69
2023-01-23T14:57:58.850Z,100876.47
2023-01-23T15:00:26.842Z,100878.28
2023-01-23T15:02:54.583Z,100873.97
2023-01-23T15:05:25.116Z,100872.16
2023-01-23T15:07:57.789Z,100877.19
2023-01-23T15:10:28.430Z,100873.88
2023-01-23T15:13:09.879Z,100889.41
2023-01-23T15:15:36.658Z,100873.78
2023-01-23T15:18:16.831Z,100874.88
2023-01-23T15:20:53.347Z,100885.50
2023-01-23T15:23:28.281Z,100874.69
2023-01-23T15:26:36.424Z,100879.88
2023-01-23T15:29:10.625Z,100889.41
2023-01-23T15:31:40.337Z,100889.31
2023-01-23T15:34:15.901Z,100883.28
2023-01-23T15:36:52.432Z,100887.28
2023-01-23T15:39:28.189Z,100886.47
2023-01-23T15:41:59.738Z,100885.56
2023-01-23T15:44:29.049Z,100889.06
2023-01-23T15:46:56.658Z,100890.88
2023-01-23T15:49:26.356Z,100893.47
2023-01-23T15:51:56.418Z,100890.22
2023-01-23T15:54:33.369Z,100881.25
2023-01-23T15:57:07.572Z,100890.78
2023-01-23T15:59:36.108Z,100884.66
2023-01-23T16:02:02.769Z,100898.50
2023-01-23T16:04:29.229Z,100893.28
2023-01-23T16:06:56.473Z,100898.38
2023-01-23T16:09:35.655Z,100893.28
2023-01-23T16:12:03.018Z,100899.28
2023-01-23T16:14:29.473Z,100893.97
2023-01-23T16:16:58.252Z,100897.38
2023-01-23T16:19:31.149Z,100906.00
2023-01-23T16:22:04.519Z,100896.28
2023-01-23T16:24:36.903Z,100900.59
2023-01-23T16:27:04.034Z,100894.22
2023-01-23T16:29:33.820Z,100901.25
2023-01-23T16:32:05.437Z,100894.22
2023-01-23T16:34:32.282Z,100884.94
2023-01-23T16:37:00.929Z,100892.19
2023-01-23T16:39:31.117Z,100885.16
2023-01-23T16:41:58.009Z,100876.34
2023-01-23T16:44:26.234Z,100877.94
2023-01-23T16:46:53.619Z,100885.06
2023-01-23T16:49:21.043Z,100887.41
2023-01-23T16:51:59.909Z,100884.25
2023-01-23T16:54:26.486Z,100891.28
2023-01-23T16:56:55.309Z,100896.47
2023-01-23T16:59:35.584Z,100896.47
2023-01-23T17:02:14.327Z,100904.41
2023-01-23T17:04:40.883Z,100904.19
2023-01-23T17:07:14.214Z,100903.41
2023-01-23T17:09:40.662Z,100897.19
2023-01-23T17:12:29.730Z,100897.84
2023-01-23T17:14:57.087Z,100896.16
2023-01-23T17:17:34.104Z,100904.00
2023-01-23T17:20:08.322Z,100899.00
2023-01-23T17:22:39.947Z,100906.00
2023-01-23T17:25:22.766Z,100903.28
2023-01-23T17:28:06.965Z,100906.91
2023-01-23T17:30:36.830Z,100898.09
2023-01-23T17:33:03.862Z,100902.59
2023-01-23T17:35:36.285Z,100898.78
2023-01-23T17:38:03.873Z,100896.28
2023-01-23T17:40:30.817Z,100897.97
2023-01-23T17:42:57.666Z,100892.63
2023-01-23T17:45:25.270Z,100892.63
2023-01-23T17:47:54.869Z,100897.75
2023-01-23T17:50:25.995Z,100897.84
2023-01-23T17:52:56.662Z,100893.78
2023-01-23T17:55:28.309Z,100905.78
2023-01-23T17:57:54.956Z,100905.66
2023-01-23T18:00:22.111Z,100899.69
2023-01-23T18:02:56.156Z,100910.09
2023-01-23T18:05:22.984Z,100904.31
2023-01-23T18:07:54.001Z,100906.00
2023-01-23T18:10:22.151Z,100906.81
2023-01-23T18:13:10.446Z,100901.25
2023-01-23T18:15:43.308Z,100908.50
2023-01-23T18:18:39.009Z,100913.72
2023-01-23T18:21:07.876Z,100917.34
2023-01-23T18:23:37.505Z,100913.72
2023-01-23T18:26:32.440Z,100914.50
2023-01-23T18:29:17.762Z,100916.09
2023-01-23T18:32:18.916Z,100907.34
2023-01-23T18:34:58.463Z,100910.09
2023-01-23T18:37:39.752Z,100906.47
2023-01-23T18:40:12.639Z,100911.13
2023-01-23T18:43:09.031Z,100914.41
2023-01-23T18:45:35.730Z,100904.09
2023-01-23T18:48:02.609Z,100906.91
2023-01-23T18:50:29.383Z,100910.09
2023-01-23T18:53:28.908Z,100911.81
2023-01-23T18:56:14.334Z,100912.72
2023-01-23T18:59:11.135Z,100914.50
2023-01-23T19:01:41.482Z,100914.63
2023-01-23T19:04:15.263Z,100913.72
2023-01-23T19:06:44.697Z,100912.91
2023-01-23T19:09:19.180Z,100909.41
2023-01-23T19:12:07.619Z,100909.50
2023-01-23T19:14:48.167Z,100903.19
2023-01-23T19:17:51.569Z,100906.00
2023-01-23T19:20:27.315Z,100910.09
2023-01-23T19:23:02.831Z,100904.09
2023-01-23T19:25:29.796Z,100912.13
2023-01-23T19:27:58.816Z,100917.22
2023-01-23T19:30:26.541Z,100919.72
2023-01-23T19:32:53.268Z,100910.75
2023-01-23T19:35:20.469Z,100917.34
2023-01-23T19:37:46.955Z,100916.53
2023-01-23T19:40:15.745Z,100924.16
2023-01-23T19:42:54.313Z,100926.75
2023-01-23T19:45:28.237Z,100916.31
2023-01-23T19:47:54.813Z,100911.91
2023-01-23T19:50:22.194Z,100922.22
2023-01-23T19:52:50.135Z,100919.63
2023-01-23T19:55:24.966Z,100919.72
2023-01-23T19:57:52.032Z,100922.44
2023-01-23T20:00:19.223Z,100926.94
2023-01-23T20:02:45.794Z,100925.25
2023-01-23T20:05:12.932Z,100926.06
2023-01-23T20:07:39.416Z,100928.34
2023-01-23T20:10:06.640Z,100929.56
2023-01-23T20:12:40.952Z,100945.00
2023-01-23T20:15:11.431Z,100951.00
2023-01-23T20:17:38.338Z,100952.72
2023-01-23T20:20:08.647Z,100952.81
2023-01-23T20:22:35.914Z,100953.81
2023-01-23T20:25:02.460Z,100960.84
2023-01-23T20:27:28.963Z,100957.31
2023-01-23T20:29:55.464Z,100957.22
2023-01-23T20:32:22.075Z,100957.91
2023-01-23T20:34:48.583Z,100958.03
2023-01-23T20:37:15.067Z,100957.13
2023-01-23T20:39:41.700Z,100961.53
2023-01-23T20:42:11.479Z,100954.72
2023-01-23T20:44:38.051Z,100955.63
2023-01-23T20:47:07.523Z,100956.41
2023-01-23T20:49:34.043Z,100952.00
2023-01-23T20:52:19.650Z,100952.22
2023-01-23T20:54:47.252Z,100956.31
2023-01-23T20:57:14.837Z,100957.00
2023-01-23T20:59:45.854Z,100947.59
2023-01-23T21:02:27.754Z,100951.09
2023-01-23T21:04:54.349Z,100951.81
2023-01-23T21:07:22.437Z,100946.59
2023-01-23T21:09:48.986Z,100953.81
2023-01-23T21:12:15.462Z,100949.31
2023-01-23T21:14:41.937Z,100950.19
2023-01-23T21:17:09.647Z,100958.13
2023-01-23T21:19:38.916Z,100958.03
2023-01-23T21:22:06.846Z,100950.19
2023-01-23T21:24:34.463Z,100952.00
2023-01-23T21:27:05.657Z,100943.38
2023-01-23T21:29:32.973Z,100941.78
2023-01-23T21:31:59.628Z,100943.50
2023-01-23T21:34:26.587Z,100958.22
2023-01-23T21:36:53.282Z,100954.72
2023-01-23T21:39:23.349Z,100958.03
2023-01-23T21:41:53.370Z,100960.38
2023-01-23T21:44:22.525Z,100949.06
2023-01-23T21:46:49.343Z,100960.53
2023-01-23T21:49:22.265Z,100963.22
2023-01-23T21:51:48.827Z,100965.84
2023-01-23T21:54:15.357Z,100967.53
2023-01-23T21:56:41.810Z,100976.25
2023-01-23T21:59:08.444Z,100967.66
2023-01-23T22:01:44.604Z,100970.94
2023-01-23T22:04:15.800Z,100964.94
2023-01-23T22:06:43.999Z,100959.72
2023-01-23T22:09:15.343Z,100954.63
2023-01-23T22:11:41.848Z,100954.63
2023-01-23T22:14:08.512Z,100960.84
2023-01-23T22:16:51.114Z,100966.84
2023-01-23T22:19:22.543Z,100974.66
2023-01-23T22:21:50.944Z,100974.66
2023-01-23T22:24:20.876Z,100967.53
2023-01-23T22:26:47.401Z,100972.84
2023-01-23T22:29:17.482Z,100964.13
2023-01-23T22:31:44.175Z,100958.03
2023-01-23T22:34:14.144Z,100963.22
2023-01-23T22:36:40.590Z,100958.91
2023-01-23T22:39:07.102Z,100962.88
2023-01-23T22:41:33.625Z,100961.97
2023-01-23T22:44:01.145Z,100958.56
2023-01-23T22:46:33.449Z,100951.56
2023-01-23T22:49:03.005Z,100951.81
2023-01-23T22:51:32.307Z,100951.56
2023-01-23T22:53:58.978Z,100947.34
2023-01-23T22:56:27.307Z,100953.59
2023-01-23T22:58:55.385Z,100953.59
2023-01-23T23:01:23.558Z,100954.97
2023-01-23T23:03:55.461Z,100954.16
2023-01-23T23:06:21.885Z,100948.94
2023-01-23T23:08:50.074Z,100953.50
2023-01-23T23:11:21.870Z,100957.00
2023-01-23T23:13:49.186Z,100948.94
2023-01-23T23:16:18.212Z,100955.44
2023-01-23T23:18:46.701Z,100959.38
2023-01-23T23:21:15.206Z,100961.97
2023-01-23T23:23:42.120Z,100960.16
2023-01-23T23:26:10.311Z,100963.78
2023-01-23T23:28:38.251Z,100964.69
2023-01-23T23:31:09.189Z,100965.59
2023-01-23T23:33:38.262Z,100962.78
2023-01-23T23:36:05.739Z,100963.78
2023-01-23T23:38:33.386Z,100962.69
2023-01-23T23:41:06.045Z,100958.38
2023-01-23T23:43:33.114Z,100968.78
2023-01-23T23:46:05.287Z,100961.78
2023-01-23T23:48:33.289Z,100954.97
2023-01-23T23:51:06.108Z,100960.88
2023-01-23T23:53:33.280Z,100961.88
2023-01-23T23:55:59.745Z,100963.25
2023-01-23T23:58:26.493Z,100959.97
